Time;durP1;ratioP1;P1;durP2;ratioP2;P2;SDS_P1;SDS_P2;PMS_P1;PMS_P2;Temp;Humidity;BMP_temperature;BMP_pressure;BME280_temperature;BME280_humidity;BME280_pressure;Samples;Min_cycle;Max_cycle;Signal;HPM_P1;HPM_P2
2022/09/16 00:01:10;;;;;;;5.57;1.55;;;;;;;11.94;100.00;100895.13;5089956;28;20877;-48
2022/09/16 00:03:39;;;;;;;6.28;1.50;;;;;;;11.96;100.00;100904.63;5091852;28;20051;-49
2022/09/16 00:06:15;;;;;;;8.05;1.58;;;;;;;11.95;100.00;100902.94;5090429;28;20074;-51
2022/09/16 00:08:44;;;;;;;8.43;1.83;;;;;;;12.01;100.00;100899.03;5090192;28;20538;-47
2022/09/16 00:11:12;;;;;;;6.28;1.50;;;;;;;11.99;100.00;100912.31;5091370;28;20502;-48
2022/09/16 00:13:41;;;;;;;5.28;1.58;;;;;;;12.01;100.00;100909.56;5091880;28;20044;-53
2022/09/16 00:16:11;;;;;;;8.05;1.88;;;;;;;11.95;100.00;100915.28;5090738;28;20117;-51
2022/09/16 00:18:39;;;;;;;7.80;1.63;;;;;;;11.94;100.00;100909.19;5091568;28;20490;-50
2022/09/16 00:21:09;;;;;;;9.20;1.40;;;;;;;11.98;100.00;100915.94;5090318;28;20044;-51
2022/09/16 00:23:37;;;;;;;5.97;1.67;;;;;;;12.02;100.00;100907.81;5091326;28;20051;-50
2022/09/16 00:26:07;;;;;;;6.88;1.60;;;;;;;12.03;100.00;100907.69;5091549;28;20048;-47
2022/09/16 00:28:35;;;;;;;6.68;1.30;;;;;;;12.05;100.00;100895.22;5089986;28;20093;-50
2022/09/16 00:31:03;;;;;;;3.58;1.13;;;;;;;12.03;100.00;100896.31;5090375;28;20132;-48
2022/09/16 00:33:32;;;;;;;5.50;1.40;;;;;;;12.04;100.00;100895.34;5091026;28;20555;-46
2022/09/16 00:36:08;;;;;;;5.30;1.70;;;;;;;12.06;100.00;100901.34;5089782;28;20048;-50
2022/09/16 00:38:36;;;;;;;5.47;1.33;;;;;;;12.11;100.00;100910.63;5089022;28;20147;-52
2022/09/16 00:41:06;;;;;;;8.82;1.60;;;;;;;12.16;100.00;100918.19;5091252;28;20146;-50
2022/09/16 00:43:55;;;;;;;7.80;1.30;;;;;;;12.18;100.00;100906.59;5090787;28;20082;-52
2022/09/16 00:46:30;;;;;;;5.47;1.33;;;;;;;12.22;100.00;100907.22;5089854;28;20076;-53
2022/09/16 00:49:02;;;;;;;7.82;1.52;;;;;;;12.24;100.00;100904.47;5090886;28;20072;-49
2022/09/16 00:51:31;;;;;;;7.03;1.50;;;;;;;12.22;100.00;100907.22;5089346;28;20069;-53
2022/09/16 00:54:02;;;;;;;7.20;1.63;;;;;;;12.28;100.00;100911.22;5090655;28;20126;-51
2022/09/16 00:56:36;;;;;;;8.25;1.40;;;;;;;12.24;100.00;100907.94;5090724;28;20056;-49
2022/09/16 00:59:08;;;;;;;3.97;1.23;;;;;;;12.25;100.00;100914.09;5090628;28;20101;-51
2022/09/16 01:01:38;;;;;;;6.50;1.35;;;;;;;12.18;100.00;100906.59;5090143;28;20047;-49
2022/09/16 01:04:12;;;;;;;6.20;1.23;;;;;;;12.20;100.00;100906.47;5091023;28;20189;-49
2022/09/16 01:06:40;;;;;;;8.85;1.50;;;;;;;12.20;100.00;100900.38;5089780;28;20540;-48
2022/09/16 01:09:08;;;;;;;4.85;1.00;;;;;;;12.22;100.00;100896.69;5090218;28;20036;-51
2022/09/16 01:11:36;;;;;;;5.93;1.48;;;;;;;12.24;100.00;100899.22;5090497;28;20101;-49
2022/09/16 01:17:00;;;;;;;5.15;1.30;;;;;;;12.24;100.00;100881.59;5089973;28;20072;-50
2022/09/16 01:19:44;;;;;;;6.95;1.27;;;;;;;12.24;100.00;100884.22;5090359;28;20119;-49
2022/09/16 01:22:28;;;;;;;9.52;1.50;;;;;;;12.28;100.00;100884.84;5089863;28;20123;-52
2022/09/16 01:25:07;;;;;;;7.20;1.30;;;;;;;12.28;100.00;100884.84;5090233;28;20056;-48
2022/09/16 01:27:51;;;;;;;5.03;1.10;;;;;;;12.31;100.00;100885.47;5090830;28;20123;-48
2022/09/16 01:30:45;;;;;;;8.35;1.73;;;;;;;12.38;100.00;100879.75;5089731;28;20044;-51
2022/09/16 01:33:21;;;;;;;5.35;1.52;;;;;;;12.33;100.00;100888.84;5089020;28;20144;-49
2022/09/16 01:36:16;;;;;;;6.38;1.33;;;;;;;12.33;100.00;100894.09;5089266;28;20044;-50
2022/09/16 01:38:59;;;;;;;5.78;1.33;;;;;;;12.33;100.00;100893.28;5083960;28;20048;-51
2022/09/16 01:41:39;;;;;;;7.32;1.40;;;;;;;12.28;100.00;100890.13;5089775;28;20319;-50
2022/09/16 01:44:17;;;;;;;8.57;1.42;;;;;;;12.26;100.00;100877.06;5089853;28;20044;-51
2022/09/16 01:46:51;;;;;;;6.28;1.52;;;;;;;12.27;100.00;100884.03;5089790;28;20052;-48
2022/09/16 01:49:26;;;;;;;6.68;1.20;;;;;;;12.28;100.00;100887.50;5089836;28;20040;-48
2022/09/16 01:52:03;;;;;;;6.43;1.67;;;;;;;12.28;100.00;100883.03;5089010;28;20100;-49
2022/09/16 01:54:42;;;;;;;7.38;1.30;;;;;;;12.25;100.00;100885.06;5090429;28;20123;-47
2022/09/16 01:57:16;;;;;;;10.05;1.80;;;;;;;12.26;100.00;100887.59;5090145;28;20127;-47
2022/09/16 01:59:48;;;;;;;6.47;1.40;;;;;;;12.25;100.00;100882.44;5088104;28;20444;-48
2022/09/16 02:02:21;;;;;;;5.80;1.40;;;;;;;12.25;100.00;100880.63;5089761;28;20537;-49
2022/09/16 02:04:51;;;;;;;5.30;1.65;;;;;;;12.30;100.00;100883.78;5088912;28;20052;-50
2022/09/16 02:07:22;;;;;;;7.13;1.60;;;;;;;12.29;100.00;100884.75;5090241;28;20127;-48
2022/09/16 02:09:54;;;;;;;6.60;1.45;;;;;;;12.24;100.00;100884.22;5089624;28;20052;-51
2022/09/16 02:12:28;;;;;;;6.70;2.00;;;;;;;12.28;100.00;100877.78;5089882;28;20105;-52
2022/09/16 02:15:03;;;;;;;6.25;1.70;;;;;;;12.27;100.00;100873.47;5089776;28;20486;-49
2022/09/16 02:17:38;;;;;;;7.93;1.85;;;;;;;12.28;100.00;100882.22;5089584;28;20044;-52
2022/09/16 02:20:10;;;;;;;7.65;1.50;;;;;;;12.29;100.00;100882.09;5088364;28;20154;-50
2022/09/16 02:22:43;;;;;;;8.18;1.70;;;;;;;12.28;100.00;100885.69;5088709;28;20052;-50
2022/09/16 02:25:15;;;;;;;5.82;1.58;;;;;;;12.29;100.00;100881.28;5092004;28;20052;-47
2022/09/16 02:27:47;;;;;;;7.07;1.30;;;;;;;12.21;100.00;100880.97;5092425;28;20052;-49
2022/09/16 02:30:18;;;;;;;7.13;1.23;;;;;;;12.22;100.00;100891.41;5092279;28;20083;-49
2022/09/16 02:32:49;;;;;;;4.88;1.23;;;;;;;12.22;100.00;100890.56;5093667;28;20108;-48
2022/09/16 02:35:19;;;;;;;9.02;1.40;;;;;;;12.16;100.00;100884.78;5091983;28;20044;-50
2022/09/16 02:37:51;;;;;;;8.27;1.75;;;;;;;12.19;100.00;100881.09;5092253;28;20060;-51
2022/09/16 02:40:24;;;;;;;16.20;1.67;;;;;;;12.20;100.00;100876.66;5092882;28;20453;-49
2022/09/16 02:42:53;;;;;;;9.35;1.65;;;;;;;12.23;100.00;100879.91;5093526;28;20086;-47
2022/09/16 02:45:26;;;;;;;7.40;1.45;;;;;;;12.18;100.00;100882.88;5092347;28;20491;-51
2022/09/16 02:48:00;;;;;;;;;;;;;;;12.16;100.00;100887.41;5094154;28;20056;-51
2022/09/16 02:50:34;;;;;;;7.50;1.60;;;;;;;12.09;100.00;100885.31;5091175;28;20018;-48
2022/09/16 02:53:08;;;;;;;7.53;1.40;;;;;;;11.96;100.00;100883.56;5092937;28;20109;-48
2022/09/16 02:55:44;;;;;;;7.63;1.45;;;;;;;11.95;100.00;100878.38;5093155;28;20075;-47
2022/09/16 02:58:12;;;;;;;6.13;1.30;;;;;;;11.87;100.00;100878.88;5093128;28;20052;-49
2022/09/16 03:00:45;;;;;;;5.93;1.63;;;;;;;11.89;100.00;100879.63;5091971;28;20048;-51
2022/09/16 03:03:14;;;;;;;;;;;;;;;11.88;100.00;100877.94;5093072;28;20052;-50
2022/09/16 03:06:10;;;;;;;7.63;1.27;;;;;;;11.90;100.00;100875.19;5091917;28;20370;-51
2022/09/16 03:08:39;;;;;;;9.38;1.30;;;;;;;11.91;100.00;100869.81;5092954;28;20067;-49
2022/09/16 03:11:21;;;;;;;5.72;1.30;;;;;;;11.87;100.00;100878.06;5093044;28;20111;-50
2022/09/16 03:14:04;;;;;;;6.07;1.50;;;;;;;11.90;100.00;100876.06;5093043;28;20046;-50
2022/09/16 03:16:42;;;;;;;8.00;1.70;;;;;;;11.92;100.00;100876.78;5092137;28;20123;-50
2022/09/16 03:19:21;;;;;;;8.68;1.63;;;;;;;11.98;100.00;100862.34;5092606;28;20089;-52
2022/09/16 03:21:59;;;;;;;4.88;1.30;;;;;;;11.91;100.00;100872.44;5091089;28;20052;-53
2022/09/16 03:24:39;;;;;;;8.35;1.48;;;;;;;11.95;100.00;100876.59;5092016;28;20142;-53
2022/09/16 03:27:12;;;;;;;5.65;1.48;;;;;;;11.93;100.00;100870.56;5093068;28;20098;-49
2022/09/16 03:29:48;;;;;;;6.75;1.67;;;;;;;11.87;100.00;100870.16;5092215;28;20436;-48
2022/09/16 03:32:20;;;;;;;5.30;1.35;;;;;;;11.86;100.00;100877.19;5091968;28;20486;-51
2022/09/16 03:34:53;;;;;;;6.05;1.17;;;;;;;11.89;100.00;100877.00;5090406;28;20052;-51
2022/09/16 03:37:23;;;;;;;5.68;1.42;;;;;;;11.90;100.00;100878.69;5091450;28;20541;-50
2022/09/16 03:39:54;;;;;;;4.95;1.25;;;;;;;11.89;100.00;100877.00;5092233;28;20044;-50
2022/09/16 03:42:22;;;;;;;5.93;1.20;;;;;;;11.88;100.00;100880.59;5092206;28;20047;-51
2022/09/16 03:44:53;;;;;;;4.90;1.05;;;;;;;11.86;100.00;100879.00;5091867;28;20059;-49
2022/09/16 03:47:21;;;;;;;6.97;1.77;;;;;;;11.88;100.00;100885.03;5092094;28;20067;-48
2022/09/16 03:49:50;;;;;;;4.13;1.15;;;;;;;11.89;100.00;100884.91;5090824;28;20127;-50
2022/09/16 03:52:21;;;;;;;4.88;1.23;;;;;;;11.90;100.00;100880.47;5091865;28;20048;-48
2022/09/16 03:54:49;;;;;;;9.50;1.52;;;;;;;11.90;100.00;100878.69;5124471;27;20075;-48
2022/09/16 03:57:17;;;;;;;5.93;1.30;;;;;;;11.91;100.00;100876.88;5092000;28;20040;-48
2022/09/16 03:59:45;;;;;;;6.13;1.30;;;;;;;11.95;100.00;100881.03;5091299;28;20072;-52
2022/09/16 04:02:13;;;;;;;5.40;1.33;;;;;;;11.87;100.00;100865.72;5091335;28;20036;-51
2022/09/16 04:04:41;;;;;;;6.03;1.25;;;;;;;11.95;100.00;100867.84;5091483;28;20058;-52
2022/09/16 04:07:11;;;;;;;7.80;1.45;;;;;;;11.91;100.00;100859.28;5091002;28;20043;-47
2022/09/16 04:09:39;;;;;;;6.32;1.20;;;;;;;11.94;100.00;100860.84;5092153;28;20076;-51
2022/09/16 04:12:07;;;;;;;3.97;1.15;;;;;;;11.95;100.00;100857.31;5091930;28;20071;-51
2022/09/16 04:14:35;;;;;;;4.90;0.98;;;;;;;11.97;100.00;100861.53;5091405;28;20098;-53
2022/09/16 04:17:03;;;;;;;4.38;1.17;;;;;;;12.02;100.00;100863.00;5091623;28;20086;-49
2022/09/16 04:19:31;;;;;;;7.22;1.25;;;;;;;12.00;100.00;100852.56;5091160;28;20093;-50
2022/09/16 04:22:02;;;;;;;6.47;1.30;;;;;;;11.99;100.00;100858.78;5090313;28;20048;-49
2022/09/16 04:24:32;;;;;;;8.93;1.48;;;;;;;12.07;100.00;100850.34;5091026;28;20443;-49
2022/09/16 04:26:59;;;;;;;5.95;1.50;;;;;;;12.04;100.00;100850.53;5091529;28;20117;-49
2022/09/16 04:29:27;;;;;;;8.15;1.77;;;;;;;11.99;100.00;100854.34;5091294;28;20055;-52
2022/09/16 04:31:55;;;;;;;7.65;1.55;;;;;;;11.95;100.00;100854.66;5090759;28;20058;-49
2022/09/16 04:34:23;;;;;;;5.05;1.35;;;;;;;12.00;100.00;100853.38;5090706;28;20402;-50
2022/09/16 04:36:51;;;;;;;5.88;1.20;;;;;;;11.89;100.00;100860.31;5088700;28;20146;-50
2022/09/16 04:39:20;;;;;;;7.57;1.90;;;;;;;11.94;100.00;100859.13;5090897;28;20052;-51
2022/09/16 04:41:49;;;;;;;8.02;1.40;;;;;;;11.91;100.00;100855.81;5089655;28;20067;-50
2022/09/16 04:44:17;;;;;;;5.68;1.98;;;;;;;11.89;100.00;100849.78;5090960;28;20044;-50
2022/09/16 04:46:45;;;;;;;9.27;1.52;;;;;;;11.89;100.00;100853.28;5090179;28;20104;-50
2022/09/16 04:49:13;;;;;;;6.07;1.27;;;;;;;11.93;100.00;100851.25;5090542;28;20583;-51
2022/09/16 04:51:41;;;;;;;6.93;1.35;;;;;;;11.95;100.00;100852.03;5089902;28;20051;-49
2022/09/16 04:54:12;;;;;;;8.50;1.33;;;;;;;11.98;100.00;100859.72;5089849;28;20044;-48
2022/09/16 04:56:40;;;;;;;7.38;1.33;;;;;;;12.02;100.00;100860.34;5090532;28;20054;-50
2022/09/16 04:59:10;;;;;;;3.08;1.17;;;;;;;11.90;100.00;100860.25;5089581;28;20118;-52
2022/09/16 05:01:40;;;;;;;6.45;1.30;;;;;;;11.89;100.00;100857.69;5089999;28;20556;-48
2022/09/16 05:04:10;;;;;;;5.15;1.13;;;;;;;11.93;100.00;100860.03;5090413;28;20044;-53
2022/09/16 05:06:40;;;;;;;4.97;1.15;;;;;;;11.89;100.00;100855.06;5089501;28;20040;-46
2022/09/16 05:09:11;;;;;;;;;;;;;;;11.89;100.00;100860.31;5091001;28;20048;-48
2022/09/16 05:11:41;;;;;;;5.75;1.40;;;;;;;11.91;100.00;100851.38;5091000;28;19924;-48
2022/09/16 05:14:13;;;;;;;6.18;1.38;;;;;;;11.83;100.00;100849.28;5090644;28;20051;-48
2022/09/16 05:16:41;;;;;;;3.90;1.20;;;;;;;11.81;100.00;100860.88;5090214;28;20093;-50
2022/09/16 05:19:12;;;;;;;5.10;1.20;;;;;;;11.75;100.00;100858.66;5089056;28;20058;-50
2022/09/16 05:21:40;;;;;;;5.03;1.02;;;;;;;11.81;100.00;100860.88;5088885;28;20090;-50
2022/09/16 05:24:13;;;;;;;4.85;1.08;;;;;;;11.84;100.00;100863.31;5090135;28;20063;-48
2022/09/16 05:26:43;;;;;;;4.97;1.40;;;;;;;11.83;100.00;100861.59;5090336;28;20044;-52
2022/09/16 05:29:14;;;;;;;5.43;1.30;;;;;;;11.79;100.00;100868.91;5090414;28;20044;-48
2022/09/16 05:31:46;;;;;;;6.22;1.20;;;;;;;11.79;100.00;100868.03;5089512;28;20463;-46
2022/09/16 05:34:16;;;;;;;5.10;1.20;;;;;;;11.82;100.00;100875.72;5089603;28;20044;-50
2022/09/16 05:36:46;;;;;;;3.17;1.10;;;;;;;11.88;100.00;100877.94;5088737;28;20124;-45
2022/09/16 05:39:16;;;;;;;7.20;1.50;;;;;;;11.84;100.00;100876.47;5089635;28;20066;-47
2022/09/16 05:41:54;;;;;;;4.57;1.10;;;;;;;11.78;100.00;100876.88;5089972;28;20086;-48
2022/09/16 05:44:24;;;;;;;6.18;1.20;;;;;;;11.79;100.00;100874.19;5088786;28;20101;-48
2022/09/16 05:46:52;;;;;;;5.45;1.30;;;;;;;11.75;100.00;100877.13;5089141;28;20049;-47
2022/09/16 05:49:20;;;;;;;4.32;1.42;;;;;;;11.76;100.00;100873.53;5089829;28;20498;-50
2022/09/16 05:51:49;;;;;;;3.08;1.00;;;;;;;11.70;100.00;100871.31;5088519;28;20092;-51
2022/09/16 05:54:18;;;;;;;4.57;1.27;;;;;;;11.70;100.00;100874.81;5088238;28;20097;-46
2022/09/16 05:56:48;;;;;;;3.90;1.20;;;;;;;11.67;100.00;100883.75;5089876;28;20376;-49
2022/09/16 05:59:17;;;;;;;7.20;1.30;;;;;;;11.67;100.00;100882.94;5091117;28;20126;-50
2022/09/16 06:01:46;;;;;;;4.63;1.27;;;;;;;11.70;100.00;100877.44;5093634;28;20450;-47
2022/09/16 06:04:17;;;;;;;4.68;1.33;;;;;;;11.68;100.00;100874.06;5094039;28;20521;-50
2022/09/16 06:06:46;;;;;;;4.10;1.35;;;;;;;11.66;100.00;100882.06;5092766;28;20502;-47
2022/09/16 06:09:18;;;;;;;5.47;1.27;;;;;;;11.69;100.00;100890.72;5093711;28;20486;-48
2022/09/16 06:11:48;;;;;;;7.23;1.30;;;;;;;11.67;100.00;100891.66;5094160;28;20048;-47
2022/09/16 06:14:17;;;;;;;4.85;1.27;;;;;;;11.74;100.00;100885.97;5126948;27;20109;-48
2022/09/16 06:16:47;;;;;;;3.63;1.10;;;;;;;11.68;100.00;100897.75;5093441;28;20131;-50
2022/09/16 06:19:17;;;;;;;6.85;1.52;;;;;;;11.70;100.00;100898.53;5093762;28;20524;-50
2022/09/16 06:21:46;;;;;;;5.78;1.40;;;;;;;11.74;100.00;100905.25;5091467;28;20048;-51
2022/09/16 06:24:15;;;;;;;9.48;1.42;;;;;;;11.75;100.00;100898.19;5093336;28;20112;-52
2022/09/16 06:26:45;;;;;;;5.22;1.35;;;;;;;11.84;100.00;100905.47;5093801;28;20047;-49
2022/09/16 06:29:14;;;;;;;4.82;1.38;;;;;;;11.89;100.00;100900.72;5093528;28;20513;-48
2022/09/16 06:31:42;;;;;;;7.45;1.73;;;;;;;11.97;100.00;100905.47;5091832;28;20406;-49
2022/09/16 06:34:15;;;;;;;4.22;1.83;;;;;;;12.00;100.00;100905.28;5093222;28;20452;-47
2022/09/16 06:36:44;;;;;;;4.13;1.60;;;;;;;12.01;100.00;100904.31;5092289;28;20076;-50
2022/09/16 06:39:13;;;;;;;6.03;1.40;;;;;;;12.05;100.00;100904.94;5092888;28;20052;-47
2022/09/16 06:41:42;;;;;;;5.00;1.55;;;;;;;12.13;100.00;100900.84;5093414;28;20101;-49
2022/09/16 06:44:10;;;;;;;6.15;1.27;;;;;;;12.15;100.00;100908.63;5092788;28;20554;-49
2022/09/16 06:46:38;;;;;;;6.18;1.23;;;;;;;12.24;100.00;100907.13;5092887;28;20126;-51
2022/09/16 06:49:06;;;;;;;6.40;1.40;;;;;;;12.28;100.00;100908.59;5093193;28;20048;-50
2022/09/16 06:51:38;;;;;;;6.72;1.40;;;;;;;12.34;100.00;100902.88;5091645;28;20566;-48
2022/09/16 06:54:08;;;;;;;6.00;1.25;;;;;;;12.40;100.00;100904.22;5093159;28;20125;-48
2022/09/16 06:56:38;;;;;;;6.53;1.73;;;;;;;12.48;100.00;100904.53;5093120;28;20040;-47
2022/09/16 06:59:07;;;;;;;6.25;1.33;;;;;;;12.57;100.00;100901.22;5093340;28;20486;-50
2022/09/16 07:01:36;;;;;;;4.68;1.48;;;;;;;12.77;100.00;100901.56;5092235;28;20073;-51
2022/09/16 07:04:07;;;;;;;6.95;1.45;;;;;;;12.89;100.00;100905.09;5092617;28;20052;-47
2022/09/16 07:06:35;;;;;;;5.38;1.45;;;;;;;12.92;100.00;100900.41;5091617;28;20048;-46
2022/09/16 07:09:24;;;;;;;9.05;1.40;;;;;;;13.01;100.00;100906.81;5092614;28;20062;-48
2022/09/16 07:11:52;;;;;;;6.97;1.17;;;;;;;13.13;100.00;100899.75;5092952;28;20147;-49
2022/09/16 07:14:20;;;;;;;7.03;1.42;;;;;;;13.19;100.00;100897.50;5092305;28;20040;-48
2022/09/16 07:16:48;;;;;;;3.95;1.35;;;;;;;13.28;100.00;100901.25;5092236;28;20119;-48
2022/09/16 07:19:17;;;;;;;6.10;1.30;;;;;;;13.42;100.00;100902.06;5092468;28;20040;-46
2022/09/16 07:21:45;;;;;;;7.22;1.88;;;;;;;13.47;100.00;100898.09;5091185;28;20066;-50
2022/09/16 07:24:14;;;;;;;6.95;1.33;;;;;;;13.62;100.00;100900.50;5091792;28;20549;-49
2022/09/16 07:26:44;;;;;;;4.25;1.02;;;;;;;13.73;100.00;100889.09;5092984;28;20378;-51
2022/09/16 07:29:14;;;;;;;8.85;1.35;;;;;;;13.81;100.00;100897.28;5090602;28;20151;-46
2022/09/16 07:31:42;;;;;;;5.20;1.58;;;;;;;13.96;100.00;100890.81;5091882;28;20051;-47
2022/09/16 07:34:12;;;;;;;7.85;1.48;;;;;;;14.11;100.00;100891.41;5091814;28;20119;-50
2022/09/16 07:36:43;;;;;;;6.72;1.67;;;;;;;14.24;100.00;100896.53;5090862;28;20043;-48
2022/09/16 07:39:13;;;;;;;7.65;1.17;;;;;;;14.36;100.00;100900.00;5092432;28;20052;-47
2022/09/16 07:41:44;;;;;;;5.22;1.13;;;;;;;14.48;100.00;100903.47;5091511;28;20060;-51
2022/09/16 07:44:14;;;;;;;6.63;1.30;;;;;;;14.62;100.00;100903.19;5091985;28;20552;-49
2022/09/16 07:46:42;;;;;;;8.10;1.27;;;;;;;14.61;100.00;100905.97;5092163;28;20478;-51
2022/09/16 07:49:14;;;;;;;5.00;1.27;;;;;;;14.73;100.00;100901.53;5092247;28;20075;-53
2022/09/16 07:51:42;;;;;;;5.55;0.90;;;;;;;14.85;100.00;100908.47;5090766;28;20105;-50
2022/09/16 07:54:16;;;;;;;3.78;1.00;;;;;;;15.02;100.00;100915.00;5091480;28;20071;-52
2022/09/16 07:56:46;;;;;;;6.50;1.10;;;;;;;15.17;100.00;100915.53;5092343;28;20131;-53
2022/09/16 07:59:18;;;;;;;7.07;1.33;;;;;;;15.20;99.72;100908.19;5091423;28;20425;-51
2022/09/16 08:01:48;;;;;;;7.30;1.35;;;;;;;15.24;100.00;100911.38;5091295;28;20056;-49
2022/09/16 08:04:17;;;;;;;5.25;0.98;;;;;;;15.56;99.91;100918.44;5091761;28;20052;-53
2022/09/16 08:06:46;;;;;;;5.00;0.80;;;;;;;15.86;99.50;100916.81;5090517;28;20067;-52
2022/09/16 08:09:14;;;;;;;5.93;1.00;;;;;;;15.87;96.80;100921.16;5090142;28;20082;-51
2022/09/16 08:12:06;;;;;;;5.30;1.13;;;;;;;15.77;96.26;100915.75;5092083;28;20068;-54
2022/09/16 08:14:34;;;;;;;5.60;1.20;;;;;;;15.48;90.05;100920.91;5090932;28;20090;-53
2022/09/16 08:17:06;;;;;;;4.43;1.10;;;;;;;15.59;92.48;100925.28;5091686;28;20056;-55
2022/09/16 08:19:34;;;;;;;4.88;0.77;;;;;;;15.51;87.87;100932.06;5091494;28;20063;-53
2022/09/16 08:22:02;;;;;;;4.13;0.70;;;;;;;15.52;89.22;100933.75;5089664;28;20135;-50
2022/09/16 08:24:33;;;;;;;5.45;1.10;;;;;;;15.60;88.93;100937.56;5089790;28;20064;-54
2022/09/16 08:27:01;;;;;;;4.93;0.90;;;;;;;15.82;88.53;100934.78;5090394;28;20432;-55
2022/09/16 08:29:30;;;;;;;4.95;0.93;;;;;;;16.04;86.41;100928.47;5091255;28;20040;-53
2022/09/16 08:31:58;;;;;;;4.97;0.88;;;;;;;16.12;86.18;100932.28;5090879;28;20055;-53
2022/09/16 08:34:26;;;;;;;4.75;0.90;;;;;;;16.46;84.94;100929.31;5089145;28;20135;-53
2022/09/16 08:36:54;;;;;;;5.50;1.10;;;;;;;16.67;85.18;100940.63;5089533;28;20088;-52
2022/09/16 08:39:22;;;;;;;2.90;0.75;;;;;;;16.84;85.17;100925.03;5050701;28;20148;-52
2022/09/16 08:42:28;;;;;;;3.60;1.00;;;;;;;16.94;84.24;100930.38;5050527;28;20086;-51
2022/09/16 08:45:08;;;;;;;8.25;0.98;;;;;;;17.23;85.13;100930.34;5049030;28;20061;-50
2022/09/16 08:47:48;;;;;;;7.00;0.98;;;;;;;17.37;82.64;100934.41;5051356;28;20590;-52
2022/09/16 08:50:28;;;;;;;5.43;1.25;;;;;;;17.43;80.44;100938.31;5049143;28;20106;-49
2022/09/16 08:52:59;;;;;;;6.10;1.10;;;;;;;17.40;77.80;100942.09;5050363;28;20575;-54
2022/09/16 08:55:30;;;;;;;4.65;0.82;;;;;;;17.60;78.57;100937.59;5050466;28;20044;-53
2022/09/16 08:58:06;;;;;;;6.05;0.98;;;;;;;17.77;76.60;100935.16;5050341;28;20120;-50
2022/09/16 09:00:37;;;;;;;5.53;1.42;;;;;;;18.03;79.05;100935.38;5050038;28;20442;-50
2022/09/16 09:03:17;;;;;;;5.03;1.00;;;;;;;17.99;78.50;100931.34;5050050;28;20049;-52
2022/09/16 09:05:51;;;;;;;6.03;1.02;;;;;;;18.21;76.13;100928.28;5049183;28;20076;-52
2022/09/16 09:08:34;;;;;;;5.75;1.20;;;;;;;18.32;76.47;100923.75;5048929;28;20049;-53
2022/09/16 09:11:10;;;;;;;7.10;1.13;;;;;;;18.16;75.16;100925.25;5050260;28;20515;-51
2022/09/16 09:14:05;;;;;;;4.00;0.90;;;;;;;18.22;75.50;100921.97;5050243;28;20074;-51
2022/09/16 09:16:46;;;;;;;3.63;0.82;;;;;;;18.20;74.87;100931.09;5048377;28;20057;-53
2022/09/16 09:19:26;;;;;;;4.63;1.00;;;;;;;17.65;70.58;100929.16;5049619;28;20040;-51
2022/09/16 09:22:05;;;;;;;4.10;0.90;;;;;;;17.59;65.44;100917.28;5048358;28;20072;-51
2022/09/16 09:24:51;;;;;;;2.65;0.60;;;;;;;17.74;65.42;100929.13;5050006;28;20122;-52
2022/09/16 09:27:28;;;;;;;2.20;0.60;;;;;;;17.93;65.55;100924.78;5050047;28;20083;-50
2022/09/16 09:30:05;;;;;;;;;;;;;;;18.24;64.52;100929.81;5050004;28;20657;-50
2022/09/16 09:32:55;;;;;;;6.25;0.70;;;;;;;18.26;62.19;100930.50;5050213;28;19927;-52
2022/09/16 09:35:36;;;;;;;3.47;0.80;;;;;;;18.18;64.01;100919.75;5048194;28;20395;-50
2022/09/16 09:38:26;;;;;;;4.57;1.10;;;;;;;18.28;63.24;100931.19;5068678;28;20580;-51
2022/09/16 09:40:59;;;;;;;5.07;0.85;;;;;;;18.62;61.59;100921.75;5090146;28;20082;-51
2022/09/16 09:43:33;;;;;;;2.20;0.60;;;;;;;18.69;60.32;100936.97;5089763;28;20924;-53
2022/09/16 09:46:05;;;;;;;3.22;0.68;;;;;;;18.92;58.60;100918.75;5089583;28;20047;-52
2022/09/16 09:48:39;;;;;;;2.83;0.55;;;;;;;18.99;57.63;100920.78;5090241;28;20055;-51
2022/09/16 09:51:18;;;;;;;6.32;0.80;;;;;;;19.17;56.19;100926.09;5088637;28;20051;-52
2022/09/16 09:53:51;;;;;;;2.47;0.55;;;;;;;19.46;57.08;100931.16;5090208;28;20048;-52
2022/09/16 09:56:29;;;;;;;4.63;0.80;;;;;;;19.40;56.20;100926.44;5089711;28;20537;-52
2022/09/16 09:59:03;;;;;;;4.65;0.90;;;;;;;19.50;54.82;100921.84;5089999;28;20119;-51
2022/09/16 10:01:31;;;;;;;2.55;0.60;;;;;;;19.18;54.05;100922.44;5089320;28;20105;-54
2022/09/16 10:04:00;;;;;;;5.35;0.80;;;;;;;19.28;53.94;100914.34;5088809;28;20044;-54
2022/09/16 10:06:32;;;;;;;3.38;0.70;;;;;;;19.46;54.53;100917.00;5088148;28;20106;-54
2022/09/16 10:09:01;;;;;;;4.95;0.60;;;;;;;19.89;53.50;100921.44;5089984;28;20135;-50
2022/09/16 10:11:31;;;;;;;3.90;0.90;;;;;;;19.92;49.89;100915.78;5089753;28;20042;-52
2022/09/16 10:14:01;;;;;;;2.30;0.60;;;;;;;19.73;50.14;100924.00;5089996;28;20487;-54
2022/09/16 10:16:32;;;;;;;5.03;0.93;;;;;;;20.06;49.72;100918.84;5089033;28;20084;-51
2022/09/16 10:19:05;;;;;;;5.33;0.90;;;;;;;20.43;49.90;100901.63;5089982;28;20050;-51
2022/09/16 10:21:44;;;;;;;2.60;0.60;;;;;;;20.06;51.33;100911.66;5088556;28;20097;-52
2022/09/16 10:24:29;;;;;;;3.35;0.85;;;;;;;19.22;51.25;100918.47;5089644;28;20109;-54
2022/09/16 10:26:57;;;;;;;3.45;0.70;;;;;;;19.42;51.91;100917.28;5088863;28;20048;-55
2022/09/16 10:29:25;;;;;;;2.30;0.70;;;;;;;19.74;50.54;100921.16;5089854;28;20135;-57
2022/09/16 10:31:54;;;;;;;3.30;0.60;;;;;;;20.04;50.13;100924.34;5089736;28;20055;-55
2022/09/16 10:34:29;;;;;;;3.28;0.80;;;;;;;20.39;49.85;100914.44;5089749;28;20135;-57
2022/09/16 10:37:04;;;;;;;4.25;0.80;;;;;;;20.69;49.78;100914.06;5088613;28;20035;-53
2022/09/16 10:39:34;;;;;;;3.85;0.73;;;;;;;20.69;48.26;100919.41;5090015;28;20399;-54
2022/09/16 10:42:02;;;;;;;4.97;0.88;;;;;;;20.65;48.52;100912.69;5088731;28;20048;-53
2022/09/16 10:44:33;;;;;;;3.00;0.70;;;;;;;20.72;46.86;100900.34;5089432;28;20494;-58
2022/09/16 10:47:05;;;;;;;6.43;0.80;;;;;;;21.17;46.73;100901.69;5093431;28;20109;-58
2022/09/16 10:49:39;;;;;;;4.43;0.77;;;;;;;20.42;46.29;100905.28;5093424;28;20106;-57
2022/09/16 10:52:14;;;;;;;5.28;1.10;;;;;;;20.36;47.42;100906.78;5092419;28;20048;-57
2022/09/16 10:54:42;;;;;;;8.52;1.00;;;;;;;20.17;47.71;100901.72;5092824;28;20547;-57
2022/09/16 10:57:26;;;;;;;5.57;0.90;;;;;;;20.41;47.44;100904.44;5093384;28;20082;-58
2022/09/16 11:00:10;;;;;;;3.95;0.77;;;;;;;20.97;45.68;100903.03;5092700;28;20048;-58
2022/09/16 11:03:11;;;;;;;5.97;0.90;;;;;;;20.85;45.50;100891.88;5093344;28;20048;-58
2022/09/16 11:05:52;;;;;;;3.72;0.80;;;;;;;20.65;44.98;100902.81;5091920;28;20032;-57
2022/09/16 11:08:43;;;;;;;4.13;0.93;;;;;;;21.05;43.71;100900.38;5092938;28;20105;-57
2022/09/16 11:11:20;;;;;;;4.25;0.80;;;;;;;20.87;43.22;100898.69;5079958;28;20490;-57
2022/09/16 11:13:56;;;;;;;4.38;1.00;;;;;;;20.91;44.25;100891.19;5092810;28;20048;-58
2022/09/16 11:16:53;;;;;;;5.07;0.90;;;;;;;20.73;45.02;100905.53;5092539;28;20097;-58
2022/09/16 11:19:32;;;;;;;3.20;0.80;;;;;;;21.07;46.37;100906.41;5092946;28;20535;-58
2022/09/16 11:22:16;;;;;;;3.58;0.93;;;;;;;20.14;47.34;100921.56;5091380;28;20139;-54
2022/09/16 11:25:16;;;;;;;5.38;0.80;;;;;;;19.65;49.62;100926.63;5092730;28;20882;-55
2022/09/16 11:27:53;;;;;;;6.25;0.90;;;;;;;19.29;51.40;100932.03;5092844;28;20101;-54
2022/09/16 11:30:22;;;;;;;4.88;1.05;;;;;;;18.95;51.60;100933.59;5090811;28;20056;-55
2022/09/16 11:33:06;;;;;;;7.80;0.80;;;;;;;19.08;50.72;100928.69;5092951;28;20040;-52
2022/09/16 11:36:16;;;;;;;3.75;0.65;;;;;;;19.48;48.26;100939.00;5091374;28;20433;-54
2022/09/16 11:38:59;;;;;;;14.73;8.40;;;;;;;20.60;47.77;100927.38;5092564;28;20079;-54
2022/09/16 11:41:32;;;;;;;5.30;1.50;;;;;;;21.16;45.10;100933.94;5090889;28;20052;-55
2022/09/16 11:44:18;;;;;;;5.07;1.10;;;;;;;21.15;43.21;100922.44;5092789;28;20127;-55
2022/09/16 11:46:57;;;;;;;3.75;0.90;;;;;;;21.30;43.92;100937.78;5092247;28;20505;-53
2022/09/16 11:49:42;;;;;;;3.60;0.70;;;;;;;21.46;43.29;100927.09;5091877;28;20109;-54
2022/09/16 11:52:29;;;;;;;3.25;0.60;;;;;;;22.02;42.83;100928.97;5090193;28;20056;-54